Time;durP1;ratioP1;P1;durP2;ratioP2;P2;SDS_P1;SDS_P2;PMS_P1;PMS_P2;Temp;Humidity;BMP_temperature;BMP_pressure;BME280_temperature;BME280_humidity;BME280_pressure;Samples;Min_cycle;Max_cycle;Signal;HPM_P1;HPM_P2
2022/11/16 00:02:50;;;;;;;69.05;22.10;;;;;;;5.97;100.00;98042.31;4894365;29;20060;-83
2022/11/16 00:05:35;;;;;;;76.70;23.40;;;;;;;5.98;100.00;98043.97;4897287;29;20515;-84
2022/11/16 00:08:25;;;;;;;56.78;21.20;;;;;;;5.98;100.00;98041.38;4905316;29;20075;-83
2022/11/16 00:11:22;;;;;;;69.70;23.33;;;;;;;6.02;100.00;98040.22;4881300;29;20223;-84
2022/11/16 00:14:06;;;;;;;56.60;21.75;;;;;;;5.98;100.00;98030.13;4881792;29;20040;-84
2022/11/16 00:16:51;;;;;;;60.53;21.70;;;;;;;6.00;100.00;98023.91;4877470;29;20040;-84
2022/11/16 00:19:36;;;;;;;70.15;22.35;;;;;;;5.88;100.00;98028.09;4885993;29;20040;-84
2022/11/16 00:22:21;;;;;;;71.63;21.92;;;;;;;5.85;100.00;98023.06;4882240;29;20044;-84
2022/11/16 00:25:06;;;;;;;58.55;21.70;;;;;;;5.85;100.00;98020.47;4878040;29;20043;-83
2022/11/16 00:27:51;;;;;;;54.78;19.95;;;;;;;5.84;100.00;98023.19;4876510;29;20049;-83
2022/11/16 00:30:37;;;;;;;44.80;21.02;;;;;;;5.85;100.00;98023.06;4895835;29;20093;-84
2022/11/16 00:33:22;;;;;;;74.50;20.27;;;;;;;5.83;100.00;98021.47;4885102;29;20041;-82
2022/11/16 00:36:10;;;;;;;75.30;20.17;;;;;;;5.82;100.00;98012.03;4893665;29;20123;-83
2022/11/16 00:38:55;;;;;;;45.72;19.85;;;;;;;5.82;100.00;98017.22;4875942;29;20040;-84
2022/11/16 00:41:42;;;;;;;84.93;21.83;;;;;;;5.73;100.00;97997.84;4891185;29;20044;-84
2022/11/16 00:44:26;;;;;;;55.17;19.13;;;;;;;5.76;100.00;97995.06;4888208;29;20090;-84
2022/11/16 00:47:11;;;;;;;37.45;17.50;;;;;;;5.79;100.00;97987.06;4877534;29;20139;-84
2022/11/16 00:49:56;;;;;;;49.30;19.45;;;;;;;5.81;100.00;97985.19;4882304;29;20043;-84
2022/11/16 00:52:41;;;;;;;50.40;19.08;;;;;;;5.72;100.00;97972.75;4869016;29;20043;-83
2022/11/16 00:55:27;;;;;;;65.20;19.10;;;;;;;5.68;100.00;97969.50;4890839;29;20108;-84
2022/11/16 00:58:12;;;;;;;63.47;20.05;;;;;;;5.58;100.00;97966.63;4899642;29;20056;-84
2022/11/16 01:01:05;;;;;;;61.72;20.33;;;;;;;5.60;100.00;97957.00;4887426;29;20059;-84
2022/11/16 01:03:52;;;;;;;106.60;21.02;;;;;;;5.58;100.00;97963.22;4876968;29;20488;-86
2022/11/16 01:06:37;;;;;;;45.22;19.05;;;;;;;5.60;100.00;97949.19;4862685;29;20046;-84
2022/11/16 01:09:25;;;;;;;58.80;19.63;;;;;;;5.57;100.00;97945.94;4880076;29;20130;-84
2022/11/16 01:12:11;;;;;;;67.85;19.73;;;;;;;5.66;100.00;97948.81;4874577;29;20040;-83
2022/11/16 01:14:56;;;;;;;129.45;21.48;;;;;;;5.62;100.00;97947.34;4874136;29;20143;-85
2022/11/16 01:17:41;;;;;;;119.85;20.88;;;;;;;5.55;100.00;97946.88;4876132;29;20036;-85
2022/11/16 01:20:28;;;;;;;58.53;19.60;;;;;;;5.57;100.00;97940.75;4882869;29;20083;-83
2022/11/16 01:23:12;;;;;;;63.70;18.25;;;;;;;5.60;100.00;97944.00;4861575;29;20872;-83
2022/11/16 01:26:00;;;;;;;89.78;21.25;;;;;;;5.62;100.00;97936.09;4871122;29;20060;-83
2022/11/16 01:28:45;;;;;;;70.30;19.40;;;;;;;5.58;100.00;97930.25;4876105;29;20144;-85
2022/11/16 01:31:31;;;;;;;45.08;18.95;;;;;;;5.65;100.00;97936.75;4880216;29;20060;-84
2022/11/16 01:34:16;;;;;;;64.25;20.60;;;;;;;5.64;100.00;97926.47;4879539;29;20601;-84
2022/11/16 01:37:01;;;;;;;72.30;19.58;;;;;;;5.60;100.00;97933.59;4897219;29;20044;-84
2022/11/16 01:39:50;;;;;;;62.47;18.85;;;;;;;5.67;100.00;97936.66;4904174;29;20095;-83
2022/11/16 01:42:36;;;;;;;73.63;19.73;;;;;;;5.62;100.00;97936.94;4878970;29;20707;-87
2022/11/16 01:45:36;;;;;;;56.08;18.60;;;;;;;5.58;100.00;97935.44;4902760;29;20346;-83
2022/11/16 01:48:28;;;;;;;56.80;21.25;;;;;;;5.66;100.00;97935.81;4881652;29;20075;-84
2022/11/16 01:51:14;;;;;;;82.55;20.95;;;;;;;5.63;100.00;97935.19;4893852;29;20513;-84
2022/11/16 01:54:02;;;;;;;74.35;20.35;;;;;;;5.61;100.00;97937.88;4881854;29;20054;-83
2022/11/16 01:56:50;;;;;;;61.03;18.45;;;;;;;5.72;100.00;97937.22;4879939;29;20041;-84
2022/11/16 01:59:51;;;;;;;55.30;19.10;;;;;;;5.69;100.00;97937.41;4886153;29;20131;-86
2022/11/16 02:02:41;;;;;;;58.15;20.58;;;;;;;5.71;100.00;97935.56;4884874;29;20446;-85
2022/11/16 02:05:58;;;;;;;63.83;20.17;;;;;;;5.70;100.00;97936.47;4893141;29;20124;-83
2022/11/16 02:12:44;;;;;;;76.95;20.25;;;;;;;5.75;100.00;97926.63;4867269;29;21242;-84
2022/11/16 02:15:50;;;;;;;49.03;18.67;;;;;;;5.78;100.00;97925.59;4834906;29;20094;-84
2022/11/16 02:18:47;;;;;;;44.25;19.80;;;;;;;5.78;100.00;97917.78;4862955;29;20539;-85
2022/11/16 02:21:45;;;;;;;80.50;20.98;;;;;;;5.68;100.00;97909.72;4853104;29;20045;-85
2022/11/16 02:25:06;;;;;;;57.40;19.50;;;;;;;5.72;100.00;97903.44;4867203;29;20072;-84
2022/11/16 02:28:37;;;;;;;69.75;19.15;;;;;;;5.73;100.00;97902.50;4861854;29;20549;-85
2022/11/16 02:31:33;;;;;;;45.75;19.88;;;;;;;5.70;100.00;97892.28;4837351;29;20163;-86
2022/11/16 02:34:20;;;;;;;76.30;20.60;;;;;;;5.70;100.00;97891.44;4848559;29;20823;-83
2022/11/16 02:37:08;;;;;;;63.75;21.08;;;;;;;5.68;100.00;97881.16;4854298;29;20048;-85
2022/11/16 02:39:56;;;;;;;53.45;18.92;;;;;;;5.76;100.00;97881.50;4845558;29;20137;-85
2022/11/16 02:43:03;;;;;;;56.50;20.50;;;;;;;5.75;100.00;97874.66;4836266;29;20106;-88
2022/11/16 02:45:57;;;;;;;73.03;18.70;;;;;;;5.73;100.00;97865.28;4835911;29;20054;-85
2022/11/16 02:48:48;;;;;;;56.28;21.10;;;;;;;5.70;100.00;97866.28;4872674;29;20100;-84
2022/11/16 02:51:35;;;;;;;71.93;20.77;;;;;;;5.64;100.00;97861.50;4897581;29;20050;-82
2022/11/16 02:54:23;;;;;;;109.80;20.80;;;;;;;5.65;100.00;97848.41;4912581;29;20056;-83
2022/11/16 02:57:10;;;;;;;89.45;20.05;;;;;;;5.61;100.00;97849.53;4895096;29;20048;-83
2022/11/16 03:00:04;;;;;;;73.70;18.70;;;;;;;5.67;100.00;97843.09;4931987;29;20063;-83
2022/11/16 03:03:06;;;;;;;67.95;20.25;;;;;;;5.57;100.00;97835.06;4913654;29;20068;-82
2022/11/16 03:05:57;;;;;;;106.22;21.00;;;;;;;5.61;100.00;97836.53;4928311;29;20113;-90
2022/11/16 03:08:55;;;;;;;43.70;19.20;;;;;;;5.62;100.00;97833.00;4883159;29;20099;-83
2022/11/16 03:12:00;;;;;;;65.90;20.33;;;;;;;5.71;100.00;97828.16;4894787;29;20068;-85
2022/11/16 03:14:58;;;;;;;55.33;19.10;;;;;;;5.67;100.00;97823.16;4882148;29;20462;-83
2022/11/16 03:17:47;;;;;;;83.95;20.75;;;;;;;5.63;100.00;97824.25;4874299;29;20052;-87
2022/11/16 03:20:37;;;;;;;77.15;20.08;;;;;;;5.60;100.00;97828.84;4880981;29;20496;-85
2022/11/16 03:23:22;;;;;;;85.75;18.10;;;;;;;5.62;100.00;97821.75;4870306;29;20195;-85
2022/11/16 03:26:11;;;;;;;57.28;19.23;;;;;;;5.64;100.00;97823.34;4864353;29;20644;-84
2022/11/16 03:29:04;;;;;;;67.45;19.15;;;;;;;5.61;100.00;97820.94;4868314;29;20135;-83
2022/11/16 03:31:55;;;;;;;87.57;19.20;;;;;;;5.59;100.00;97820.19;4862795;29;20047;-86
2022/11/16 03:34:50;;;;;;;59.50;17.80;;;;;;;5.63;100.00;97813.88;4889070;29;20165;-86
2022/11/16 03:37:37;;;;;;;42.67;17.75;;;;;;;5.67;100.00;97807.56;4895885;29;20052;-84
2022/11/16 03:40:26;;;;;;;80.28;18.83;;;;;;;5.63;100.00;97795.69;4863308;29;20470;-84
2022/11/16 03:43:10;;;;;;;80.32;16.70;;;;;;;5.71;100.00;97797.81;4875034;29;20052;-84
2022/11/16 03:45:57;;;;;;;88.55;17.70;;;;;;;5.66;100.00;97792.88;4882223;29;20051;-85
2022/11/16 03:48:42;;;;;;;77.47;18.25;;;;;;;5.62;100.00;97796.63;4910384;29;20750;-86
2022/11/16 03:51:36;;;;;;;66.85;17.92;;;;;;;5.69;100.00;97797.06;4884392;29;20641;-84
2022/11/16 03:54:21;;;;;;;85.25;18.90;;;;;;;5.65;100.00;97788.63;4850074;29;20051;-83
2022/11/16 03:57:06;;;;;;;43.88;17.08;;;;;;;5.67;100.00;97791.13;4866079;29;20049;-85
2022/11/16 03:59:50;;;;;;;54.20;17.00;;;;;;;5.55;100.00;97788.38;4876515;29;20059;-85
2022/11/16 04:02:39;;;;;;;65.60;16.95;;;;;;;5.62;100.00;97800.97;4865497;29;20048;-85
2022/11/16 04:24:56;;;;;;;56.88;17.10;;;;;;;5.66;100.00;97777.28;4888477;29;20542;-82
2022/11/16 04:40:08;;;;;;;46.90;16.75;;;;;;;5.66;100.00;97763.47;4892292;29;20060;-83
2022/11/16 04:42:54;;;;;;;68.70;17.33;;;;;;;5.62;100.00;97762.00;4888762;29;20501;-80
2022/11/16 04:48:54;;;;;;;38.78;17.30;;;;;;;5.64;100.00;97766.19;4895514;29;20492;-81
2022/11/16 04:51:38;;;;;;;47.78;17.13;;;;;;;5.69;100.00;97765.03;4881802;29;20213;-83
2022/11/16 04:54:23;;;;;;;76.70;18.08;;;;;;;5.65;100.00;97751.41;4887634;29;20052;-81
2022/11/16 04:57:09;;;;;;;59.00;18.38;;;;;;;5.65;100.00;97757.44;4888773;29;20036;-82
2022/11/16 04:59:55;;;;;;;60.42;17.63;;;;;;;5.67;100.00;97744.34;4877642;29;20051;-81
2022/11/16 05:02:40;;;;;;;56.40;17.77;;;;;;;5.66;100.00;97740.09;4890721;29;20162;-82
2022/11/16 05:05:26;;;;;;;87.53;19.25;;;;;;;5.62;100.00;97736.84;4905054;29;20044;-82
2022/11/16 05:08:11;;;;;;;91.85;18.27;;;;;;;5.65;100.00;97738.41;4885522;29;20086;-82
2022/11/16 05:10:55;;;;;;;67.85;20.60;;;;;;;5.63;100.00;97732.50;4879476;29;20449;-81
2022/11/16 05:13:40;;;;;;;47.22;17.75;;;;;;;5.71;100.00;97724.19;4878598;29;20043;-82
2022/11/16 05:16:26;;;;;;;75.97;20.17;;;;;;;5.70;100.00;97725.94;4883348;29;20178;-83
2022/11/16 05:22:17;;;;;;;109.80;20.70;;;;;;;5.64;100.00;97728.94;4892126;29;20060;-80
2022/11/16 05:25:04;;;;;;;54.67;17.98;;;;;;;5.70;100.00;97738.94;4875729;29;20047;-80
2022/11/16 05:27:50;;;;;;;47.97;18.52;;;;;;;5.67;100.00;97731.34;4883662;29;20041;-81
2022/11/16 05:30:35;;;;;;;25.45;12.93;;;;;;;5.91;100.00;97735.88;4893065;29;20036;-77
2022/11/16 05:33:21;;;;;;;49.78;18.15;;;;;;;6.51;100.00;97732.84;4910152;29;20261;-86
2022/11/16 05:36:08;;;;;;;50.47;18.17;;;;;;;6.36;100.00;97737.31;4901326;29;20040;-80
2022/11/16 05:38:54;;;;;;;59.28;17.65;;;;;;;6.15;100.00;97735.22;4899859;29;20081;-77
2022/11/16 05:41:41;;;;;;;42.10;14.60;;;;;;;6.39;100.00;97734.50;4894849;29;20190;-78
2022/11/16 05:44:25;;;;;;;48.00;17.35;;;;;;;6.30;100.00;97733.34;4888544;29;20087;-78
2022/11/16 05:47:10;;;;;;;52.83;16.65;;;;;;;6.53;100.00;97733.56;4900947;29;20543;-81
2022/11/16 05:49:55;;;;;;;48.63;16.52;;;;;;;6.49;100.00;97738.16;4909027;29;20044;-80
2022/11/16 05:52:43;;;;;;;30.27;15.30;;;;;;;6.50;100.00;97739.81;4901231;29;20071;-81
2022/11/16 05:55:29;;;;;;;48.65;16.30;;;;;;;6.59;100.00;97746.16;4902129;29;20366;-82
2022/11/16 05:58:14;;;;;;;33.95;13.43;;;;;;;8.11;100.00;97738.94;4894216;29;20044;-78
2022/11/16 06:00:58;;;;;;;37.05;16.10;;;;;;;8.80;100.00;97743.41;4883324;29;20044;-79
2022/11/16 06:03:45;;;;;;;32.80;15.35;;;;;;;9.97;100.00;97737.66;4886687;29;20063;-79
2022/11/16 06:06:30;;;;;;;39.83;18.02;;;;;;;9.20;100.00;97722.03;4898995;29;20036;-78
2022/11/16 06:09:15;;;;;;;37.55;15.73;;;;;;;9.16;100.00;97715.38;4891565;29;20040;-79
2022/11/16 06:11:59;;;;;;;33.67;16.10;;;;;;;8.30;100.00;97708.84;4897115;29;20036;-78
2022/11/16 06:14:45;;;;;;;34.25;15.15;;;;;;;7.32;100.00;97706.41;4885093;29;20040;-79
2022/11/16 06:17:32;;;;;;;41.75;15.45;;;;;;;6.93;100.00;97708.31;4893913;29;20055;-80
2022/11/16 06:20:18;;;;;;;43.22;15.40;;;;;;;7.03;100.00;97717.16;4892913;29;20111;-81
2022/11/16 06:23:04;;;;;;;40.83;15.75;;;;;;;6.97;100.00;97707.97;4891534;29;20041;-79
2022/11/16 06:25:55;;;;;;;45.35;16.58;;;;;;;6.94;100.00;97710.78;4881527;29;20049;-76
2022/11/16 06:28:42;;;;;;;32.35;16.27;;;;;;;9.06;100.00;97720.50;4890121;29;20040;-80
2022/11/16 06:31:27;;;;;;;34.75;17.00;;;;;;;7.87;100.00;97715.50;4896303;29;20036;-78
2022/11/16 06:34:12;;;;;;;37.47;16.85;;;;;;;7.35;100.00;97707.94;4874437;29;21065;-78
2022/11/16 06:36:57;;;;;;;44.15;16.30;;;;;;;7.10;100.00;97723.56;4907433;29;20036;-79
2022/11/16 06:39:42;;;;;;;39.75;16.55;;;;;;;7.05;100.00;97717.03;4883606;29;20504;-79
2022/11/16 06:42:26;;;;;;;39.15;15.82;;;;;;;6.70;100.00;97702.94;4908683;29;20431;-78
2022/11/16 06:45:12;;;;;;;39.20;15.60;;;;;;;6.59;100.00;97699.31;4891242;29;20060;-80
2022/11/16 06:48:04;;;;;;;47.88;17.30;;;;;;;6.42;100.00;97695.25;4909089;29;20055;-80
2022/11/16 06:50:50;;;;;;;48.20;16.73;;;;;;;6.37;100.00;97698.19;4892842;29;20037;-77
2022/11/16 06:53:37;;;;;;;39.30;15.63;;;;;;;6.33;100.00;97716.72;4880160;29;20060;-78
2022/11/16 06:56:25;;;;;;;40.95;17.25;;;;;;;6.37;100.00;97705.16;4890942;29;20409;-79
2022/11/16 06:59:13;;;;;;;43.20;15.43;;;;;;;6.48;100.00;97700.03;4870258;29;20587;-80
2022/11/16 07:01:58;;;;;;;36.20;15.70;;;;;;;6.40;100.00;97694.53;4885169;29;20490;-78
2022/11/16 07:04:46;;;;;;;33.67;15.32;;;;;;;6.36;100.00;97695.69;4897608;29;20044;-79
2022/11/16 07:07:32;;;;;;;40.10;15.27;;;;;;;6.28;100.00;97697.03;4892372;29;20044;-78
2022/11/16 07:10:17;;;;;;;52.30;16.70;;;;;;;6.18;100.00;97693.41;4895281;29;20691;-79
2022/11/16 07:13:03;;;;;;;43.95;15.55;;;;;;;6.22;100.00;97686.25;4895372;29;20036;-80
2022/11/16 07:15:48;;;;;;;34.70;14.93;;;;;;;6.34;100.00;97684.53;4885665;29;20123;-77
2022/11/16 07:18:34;;;;;;;43.88;16.67;;;;;;;6.26;100.00;97691.13;4917608;29;20044;-79
2022/11/16 07:21:19;;;;;;;33.97;17.65;;;;;;;6.43;100.00;97686.50;4912113;29;20047;-77
2022/11/16 07:24:05;;;;;;;39.67;16.25;;;;;;;6.35;100.00;97684.44;4900095;29;20063;-78
2022/11/16 07:26:50;;;;;;;57.42;18.33;;;;;;;6.27;100.00;97687.56;4896730;29;20040;-78
2022/11/16 07:29:38;;;;;;;46.15;19.27;;;;;;;6.20;100.00;97682.91;4883269;29;20036;-78
2022/11/16 07:32:39;;;;;;;51.33;17.20;;;;;;;6.31;100.00;97675.19;4888886;29;20059;-79
2022/11/16 07:35:23;;;;;;;48.25;17.65;;;;;;;6.31;100.00;97677.81;4903487;29;20135;-79
2022/11/16 07:38:08;;;;;;;38.90;15.73;;;;;;;6.35;100.00;97681.03;4901131;29;20471;-81
2022/11/16 07:40:53;;;;;;;34.95;15.05;;;;;;;6.33;100.00;97675.94;4892331;29;20052;-78
2022/11/16 07:43:40;;;;;;;37.75;16.50;;;;;;;6.40;100.00;97677.16;4894570;29;20509;-79
2022/11/16 07:46:30;;;;;;;41.03;15.65;;;;;;;6.43;100.00;97670.09;4891113;29;20036;-80
2022/11/16 07:49:17;;;;;;;33.72;15.75;;;;;;;6.41;100.00;97676.22;4884113;29;20054;-80
2022/11/16 07:52:10;;;;;;;33.03;15.77;;;;;;;6.41;100.00;97671.00;4888783;29;20051;-79
2022/11/16 07:55:18;;;;;;;40.92;15.00;;;;;;;6.24;100.00;97661.78;4901718;29;20040;-79
2022/11/16 07:58:05;;;;;;;46.47;16.15;;;;;;;6.24;100.00;97669.56;4891162;29;20044;-80
2022/11/16 08:00:50;;;;;;;35.45;15.48;;;;;;;6.38;100.00;97671.22;4883875;29;20054;-78
2022/11/16 08:03:35;;;;;;;47.72;15.30;;;;;;;6.26;100.00;97670.31;4879249;29;20384;-79
2022/11/16 08:06:24;;;;;;;32.97;14.43;;;;;;;6.26;100.00;97666.88;4891384;29;20068;-79
2022/11/16 08:09:10;;;;;;;34.15;14.07;;;;;;;6.21;100.00;97674.16;4877271;29;20040;-79
2022/11/16 08:11:55;;;;;;;30.55;14.32;;;;;;;6.19;100.00;97676.84;4880784;29;20134;-79
2022/11/16 08:14:41;;;;;;;32.20;14.25;;;;;;;6.12;100.00;97666.03;4880634;29;20044;-79
2022/11/16 08:17:25;;;;;;;31.23;15.38;;;;;;;6.11;100.00;97666.13;4883398;29;20062;-79
2022/11/16 08:20:15;;;;;;;32.95;15.90;;;;;;;6.25;100.00;97660.81;4893990;29;20496;-79
2022/11/16 08:23:01;;;;;;;41.47;16.35;;;;;;;6.29;100.00;97656.25;4881217;29;20372;-80
2022/11/16 08:25:49;;;;;;;44.25;14.80;;;;;;;6.24;100.00;97651.38;4879729;29;20036;-79
2022/11/16 08:28:35;;;;;;;30.42;14.30;;;;;;;6.28;100.00;97658.00;4881448;29;20055;-79
2022/11/16 08:31:23;;;;;;;29.88;14.85;;;;;;;6.36;100.00;97659.28;4895546;29;20083;-79
2022/11/16 08:34:14;;;;;;;45.65;15.18;;;;;;;6.35;100.00;97655.00;4893556;29;20055;-80
2022/11/16 08:37:05;;;;;;;31.00;14.98;;;;;;;6.27;100.00;97663.31;4889894;29;20431;-79
2022/11/16 08:40:04;;;;;;;29.45;15.10;;;;;;;6.38;100.00;97660.00;4882087;29;20053;-80
2022/11/16 08:42:55;;;;;;;33.10;15.90;;;;;;;6.33;100.00;97665.53;4902335;29;20052;-78
2022/11/16 08:45:46;;;;;;;31.88;14.93;;;;;;;6.31;100.00;97661.34;4888578;29;20033;-81
2022/11/16 08:48:31;;;;;;;35.70;17.65;;;;;;;6.39;100.00;97651.25;4879642;29;20059;-78
2022/11/16 08:51:17;;;;;;;32.33;15.35;;;;;;;6.48;100.00;97655.00;4904464;29;20044;-80
2022/11/16 08:54:09;;;;;;;25.92;14.63;;;;;;;6.53;100.00;97658.94;4882085;29;20033;-80
2022/11/16 08:56:55;;;;;;;25.98;13.93;;;;;;;6.57;100.00;97663.91;4899409;29;20453;-79
2022/11/16 08:59:40;;;;;;;26.73;13.88;;;;;;;6.65;100.00;97669.41;4894524;29;20063;-79
2022/11/16 09:02:29;;;;;;;26.35;14.43;;;;;;;6.80;100.00;97675.34;4888343;29;20043;-83
2022/11/16 09:05:15;;;;;;;26.27;13.55;;;;;;;6.80;100.00;97675.34;4892508;29;20492;-79
2022/11/16 09:08:00;;;;;;;28.90;14.80;;;;;;;6.80;100.00;97680.53;4906533;29;20051;-78
2022/11/16 09:10:45;;;;;;;29.00;14.55;;;;;;;6.86;100.00;97676.66;4886704;29;20036;-81
2022/11/16 09:13:30;;;;;;;29.88;15.02;;;;;;;6.87;100.00;97679.16;4875125;29;20438;-78
2022/11/16 09:16:16;;;;;;;25.23;12.48;;;;;;;6.94;100.00;97682.16;4873506;29;20093;-78
2022/11/16 09:19:01;;;;;;;27.80;13.43;;;;;;;6.96;100.00;97679.44;4864127;29;20072;-82
2022/11/16 09:21:45;;;;;;;27.17;12.95;;;;;;;6.83;100.00;97682.91;4842547;29;20090;-78
2022/11/16 09:24:30;;;;;;;28.85;13.32;;;;;;;6.87;100.00;97679.16;4853887;29;20044;-79
2022/11/16 09:27:15;;;;;;;24.60;13.20;;;;;;;6.98;100.00;97681.00;4866263;29;20065;-77
2022/11/16 09:30:00;;;;;;;27.98;14.13;;;;;;;6.92;100.00;97680.63;4880468;29;20070;-79
2022/11/16 09:32:47;;;;;;;30.75;14.90;;;;;;;6.96;100.00;97676.84;4884237;29;20053;-79
2022/11/16 09:35:33;;;;;;;27.95;14.57;;;;;;;6.97;100.00;97679.34;4866681;29;20052;-79
2022/11/16 09:38:18;;;;;;;39.05;18.58;;;;;;;6.84;100.00;97681.16;4877458;29;20655;-79
2022/11/16 09:41:28;;;;;;;38.00;18.83;;;;;;;6.88;100.00;97675.63;4861646;29;20044;-82
2022/11/16 09:44:57;;;;;;;39.10;16.90;;;;;;;7.04;100.00;97682.34;4878644;29;20064;-80
2022/11/16 09:47:47;;;;;;;34.55;15.50;;;;;;;7.10;100.00;97681.88;4912079;29;20452;-81
2022/11/16 09:50:50;;;;;;;33.72;16.42;;;;;;;7.16;100.00;97675.44;4897075;29;20051;-79
2022/11/16 09:53:54;;;;;;;34.97;17.15;;;;;;;7.20;100.00;97682.06;4900197;29;20497;-82
2022/11/16 09:56:41;;;;;;;28.38;14.68;;;;;;;7.32;100.00;97684.72;4891948;29;20048;-79
2022/11/16 09:59:39;;;;;;;31.35;15.60;;;;;;;7.20;100.00;97678.63;4890365;29;20544;-79
2022/11/16 10:02:35;;;;;;;32.13;15.25;;;;;;;7.18;100.00;97676.13;4884769;29;20147;-78
2022/11/16 10:05:29;;;;;;;32.72;16.00;;;;;;;7.20;100.00;97670.81;4892158;29;20040;-79
2022/11/16 10:08:34;;;;;;;32.28;16.15;;;;;;;7.33;100.00;97660.34;4901763;29;20119;-81
2022/11/16 10:11:40;;;;;;;34.20;18.20;;;;;;;7.41;100.00;97655.38;4912173;29;20051;-79
2022/11/16 10:14:46;;;;;;;36.03;17.48;;;;;;;7.23;100.00;97642.75;4895518;29;20040;-80
2022/11/16 10:17:55;;;;;;;36.20;17.70;;;;;;;7.15;100.00;97634.66;4900576;29;20048;-80
2022/11/16 10:20:53;;;;;;;30.50;15.18;;;;;;;7.26;100.00;97628.69;4880273;29;20139;-79
2022/11/16 10:24:02;;;;;;;34.67;17.05;;;;;;;7.30;100.00;97626.69;4898060;29;20036;-80
2022/11/16 10:26:55;;;;;;;32.25;16.67;;;;;;;7.28;100.00;97624.19;4898399;29;20074;-80
2022/11/16 10:29:52;;;;;;;32.47;16.75;;;;;;;7.36;100.00;97616.63;4883637;29;20045;-80
2022/11/16 10:33:00;;;;;;;32.38;15.10;;;;;;;7.39;100.00;97626.03;4884194;29;20123;-79
2022/11/16 10:35:52;;;;;;;37.60;16.63;;;;;;;7.33;100.00;97618.66;4893900;29;20504;-79
2022/11/16 10:38:38;;;;;;;29.65;16.27;;;;;;;7.25;100.00;97620.03;4894648;29;20392;-78
2022/11/16 10:41:31;;;;;;;28.52;14.80;;;;;;;7.20;100.00;97616.09;4877739;29;20040;-80
2022/11/16 10:44:37;;;;;;;29.15;14.30;;;;;;;7.14;100.00;97620.84;4880855;29;20108;-80
2022/11/16 10:47:27;;;;;;;26.65;13.52;;;;;;;7.34;100.00;97617.72;4882254;29;20043;-78
2022/11/16 10:50:39;;;;;;;26.25;12.85;;;;;;;7.48;100.00;97612.31;4888485;29;20044;-81
2022/11/16 10:53:42;;;;;;;25.27;12.50;;;;;;;7.29;100.00;97614.59;4879856;29;20404;-80
2022/11/16 10:56:30;;;;;;;32.50;17.70;;;;;;;7.40;100.00;97612.03;4892644;29;20388;-79
2022/11/16 10:59:19;;;;;;;29.75;16.15;;;;;;;7.52;100.00;97608.50;4894122;29;20055;-79
2022/11/16 11:02:23;;;;;;;26.05;13.77;;;;;;;7.42;100.00;97609.31;4897607;29;20446;-79
2022/11/16 11:05:20;;;;;;;26.25;12.90;;;;;;;7.33;100.00;97605.63;4889848;29;20474;-79
2022/11/16 11:08:11;;;;;;;27.52;14.27;;;;;;;7.24;100.00;97607.13;4898801;29;20052;-78
2022/11/16 11:14:20;;;;;;;29.33;13.80;;;;;;;7.50;100.00;97618.25;4903342;29;20056;-79
2022/11/16 11:17:12;;;;;;;31.15;16.50;;;;;;;7.46;100.00;97611.59;4890706;29;20036;-79
2022/11/16 11:19:59;;;;;;;;;;;;;;;7.41;100.00;97607.66;4879314;29;20053;-79
2022/11/16 11:23:03;;;;;;;25.48;13.90;;;;;;;7.33;100.00;97598.63;4890647;29;19986;-81
2022/11/16 11:25:49;;;;;;;20.48;10.77;;;;;;;7.30;100.00;97598.84;4867203;29;20123;-78
2022/11/16 11:28:44;;;;;;;19.17;10.35;;;;;;;7.27;100.00;97601.69;4894898;29;20151;-77
2022/11/16 11:31:43;;;;;;;20.55;10.00;;;;;;;7.33;100.00;97598.63;4883640;29;20063;-79
2022/11/16 11:34:38;;;;;;;17.00;9.65;;;;;;;7.39;100.00;97599.97;4889257;29;20149;-77
2022/11/16 11:37:34;;;;;;;15.93;8.40;;;;;;;7.43;100.00;97604.00;4914039;29;20056;-77
2022/11/16 11:40:40;;;;;;;15.10;8.85;;;;;;;7.42;100.00;97606.72;4896129;29;20457;-77
2022/11/16 11:43:25;;;;;;;19.50;10.10;;;;;;;7.69;100.00;97598.59;4899528;29;20060;-79
2022/11/16 11:46:19;;;;;;;16.23;8.65;;;;;;;7.81;100.00;97601.22;4892192;29;20502;-79
2022/11/16 11:49:15;;;;;;;16.00;9.05;;;;;;;7.91;100.00;97601.38;4881280;29;20121;-77
2022/11/16 11:52:16;;;;;;;18.58;10.23;;;;;;;7.89;100.00;97593.66;4908560;29;20091;-78
2022/11/16 11:55:02;;;;;;;15.45;8.35;;;;;;;7.89;100.00;97593.66;4882403;29;20132;-79
2022/11/16 11:57:49;;;;;;;12.95;7.45;;;;;;;7.96;100.00;97596.63;4904124;29;20135;-77
2022/11/16 12:00:53;;;;;;;14.77;8.88;;;;;;;7.98;100.00;97592.94;4882904;29;20060;-78
2022/11/16 12:03:59;;;;;;;14.80;8.38;;;;;;;8.09;100.00;97591.31;4901133;29;20072;-76
2022/11/16 12:07:11;;;;;;;14.18;7.30;;;;;;;7.98;100.00;97590.34;4893189;29;20155;-78
2022/11/16 12:10:01;;;;;;;11.55;7.70;;;;;;;8.00;100.00;97592.84;4890643;29;20483;-79
2022/11/16 12:13:05;;;;;;;15.15;8.07;;;;;;;8.03;100.00;97589.97;4876776;29;20048;-78
2022/11/16 12:16:09;;;;;;;13.68;7.13;;;;;;;7.99;100.00;97594.63;4893309;29;20501;-78
2022/11/16 12:19:17;;;;;;;15.60;8.98;;;;;;;8.02;100.00;97590.94;4886292;29;20080;-78
2022/11/16 12:22:24;;;;;;;16.42;8.52;;;;;;;8.01;100.00;97582.28;4889103;29;20146;-80
2022/11/16 12:25:24;;;;;;;13.95;7.30;;;;;;;8.04;100.00;97585.59;4877293;29;20044;-79
2022/11/16 12:28:40;;;;;;;16.95;9.25;;;;;;;8.12;100.00;97591.06;4878661;29;20048;-79
2022/11/16 12:31:37;;;;;;;15.65;8.93;;;;;;;8.15;100.00;97588.22;4894825;29;20092;-79
2022/11/16 12:34:40;;;;;;;14.38;7.20;;;;;;;8.16;100.00;97591.66;4892214;29;20509;-81
2022/11/16 12:37:38;;;;;;;15.73;8.10;;;;;;;8.16;100.00;97594.28;4880007;29;20119;-78
2022/11/16 12:40:44;;;;;;;17.52;8.07;;;;;;;7.93;100.00;97587.25;4877946;29;20099;-79
2022/11/16 12:43:54;;;;;;;13.57;8.10;;;;;;;8.03;100.00;97581.34;4892083;29;20094;-78
2022/11/16 12:47:05;;;;;;;15.60;7.13;;;;;;;8.00;100.00;97578.03;4901966;29;20037;-79
2022/11/16 12:50:11;;;;;;;16.67;8.63;;;;;;;8.18;100.00;97579.31;4877055;29;20084;-79
2022/11/16 12:53:13;;;;;;;15.80;9.25;;;;;;;8.10;100.00;97579.91;4888122;29;20048;-79
2022/11/16 12:56:03;;;;;;;;;;;;;;;8.04;100.00;97580.38;4895480;29;20643;-79
2022/11/16 12:59:10;;;;;;;13.55;7.47;;;;;;;8.20;100.00;97580.03;4909916;29;20592;-80
2022/11/16 13:02:25;;;;;;;14.65;8.63;;;;;;;8.23;100.00;97582.41;4880808;29;20040;-80
2022/11/16 13:05:16;;;;;;;14.55;7.63;;;;;;;8.11;100.00;97574.56;4905556;29;20057;-79
2022/11/16 13:08:34;;;;;;;18.67;8.48;;;;;;;8.22;100.00;97578.97;4904914;29;20295;-79
2022/11/16 13:11:24;;;;;;;15.25;8.85;;;;;;;8.05;100.00;97571.59;4901362;29;20044;-79
2022/11/16 13:14:17;;;;;;;16.83;8.25;;;;;;;8.03;100.00;97570.91;4890538;29;20054;-79
2022/11/16 13:17:04;;;;;;;14.98;8.55;;;;;;;7.99;100.00;97575.53;4872020;29;20144;-80
2022/11/16 13:20:04;;;;;;;14.65;7.88;;;;;;;7.98;100.00;97571.28;4889843;29;20045;-78
2022/11/16 13:23:24;;;;;;;15.80;8.38;;;;;;;8.15;100.00;97569.97;4880663;29;20515;-79
2022/11/16 13:26:21;;;;;;;15.77;9.02;;;;;;;8.16;100.00;97569.00;4905412;29;20061;-79
2022/11/16 13:29:23;;;;;;;14.15;6.65;;;;;;;8.18;100.00;97574.94;4900218;29;20131;-78
2022/11/16 13:32:45;;;;;;;16.02;8.05;;;;;;;8.09;100.00;97571.28;4885441;29;20437;-79
2022/11/16 13:35:29;;;;;;;;;;;;;;;7.97;100.00;97565.22;4881474;29;20480;-79
2022/11/16 13:38:53;;;;;;;12.95;7.93;;;;;;;7.96;100.00;97568.78;4891483;29;19975;-80
2022/11/16 13:41:43;;;;;;;14.40;8.73;;;;;;;7.84;100.00;97559.28;4881170;29;20050;-79
2022/11/16 13:44:28;;;;;;;14.45;8.30;;;;;;;7.92;100.00;97567.34;4884719;29;20170;-79
2022/11/16 13:47:27;;;;;;;15.00;8.73;;;;;;;7.97;100.00;97557.41;4905593;29;20055;-80
2022/11/16 13:50:21;;;;;;;14.18;8.40;;;;;;;7.87;100.00;97570.31;4892806;29;20076;-78
2022/11/16 13:53:12;;;;;;;14.98;8.55;;;;;;;7.81;100.00;97562.13;4879415;29;20041;-79
2022/11/16 13:56:03;;;;;;;13.30;6.82;;;;;;;7.76;100.00;97565.91;4905094;29;20534;-79
2022/11/16 13:58:50;;;;;;;14.63;8.40;;;;;;;7.80;100.00;97563.06;4881779;29;20119;-80